sensor_id;sensor_type;location;lat;lon;timestamp;P1;P2;P0
74436;PMS7003;62868;52.360;30.424;2023-11-21T06:41:23;6;3.3;1.7
74436;PMS7003;62868;52.360;30.424;2023-11-21T06:46:10;3.3;1.7;1
74436;PMS7003;62868;52.360;30.424;2023-11-21T06:51:11;5.3;3;2.3
74436;PMS7003;62868;52.360;30.424;2023-11-21T06:56:21;2.3;2;0.8
74436;PMS7003;62868;52.360;30.424;2023-11-21T07:01:49;3.7;2.3;0.7
74436;PMS7003;62868;52.360;30.424;2023-11-21T07:06:47;4;1;0.7
74436;PMS7003;62868;52.360;30.424;2023-11-21T07:11:37;3;1.5;0.8
74436;PMS7003;62868;52.360;30.424;2023-11-21T07:16:49;3.7;1.7;1
74436;PMS7003;62868;52.360;30.424;2023-11-21T07:21:31;4.3;2.3;1.3
74436;PMS7003;62868;52.360;30.424;2023-11-21T07:26:37;2.3;1.7;1
74436;PMS7003;62868;52.360;30.424;2023-11-21T07:31:09;6;4.3;3
74436;PMS7003;62868;52.360;30.424;2023-11-21T07:36:11;4.3;2.7;1.7
74436;PMS7003;62868;52.360;30.424;2023-11-21T07:41:29;6.7;5.3;2.7
74436;PMS7003;62868;52.360;30.424;2023-11-21T07:46:09;4.3;2.7;1.7
74436;PMS7003;62868;52.360;30.424;2023-11-21T07:51:29;5.5;2.5;2
74436;PMS7003;62868;52.360;30.424;2023-11-21T07:56:19;10;5.7;4
74436;PMS7003;62868;52.360;30.424;2023-11-21T08:01:49;5.7;4.7;3.3
74436;PMS7003;62868;52.360;30.424;2023-11-21T08:06:49;6;4.3;2.7
74436;PMS7003;62868;52.360;30.424;2023-11-21T08:11:09;4.8;4.3;2.5
74436;PMS7003;62868;52.360;30.424;2023-11-21T08:16:47;7;5.3;3.3
74436;PMS7003;62868;52.360;30.424;2023-11-21T08:21:09;6;5.3;2.7
74436;PMS7003;62868;52.360;30.424;2023-11-21T08:26:11;6.7;4.7;3.3
74436;PMS7003;62868;52.360;30.424;2023-11-21T08:31:23;7;6;3.5
74436;PMS7003;62868;52.360;30.424;2023-11-21T08:36:19;7.7;5;4
74436;PMS7003;62868;52.360;30.424;2023-11-21T08:41:30;7.3;5.7;3.3
74436;PMS7003;62868;52.360;30.424;2023-11-21T08:46:29;6;4.7;3.3
74436;PMS7003;62868;52.360;30.424;2023-11-21T08:51:49;8;6;4.8
74436;PMS7003;62868;52.360;30.424;2023-11-21T08:56:47;7;5.3;3.3
74436;PMS7003;62868;52.360;30.424;2023-11-21T09:01:29;4.7;3.7;2.7
74436;PMS7003;62868;52.360;30.424;2023-11-21T09:06:47;6;4.3;2.5
74436;PMS7003;62868;52.360;30.424;2023-11-21T09:11:21;5;3.3;2
74436;PMS7003;62868;52.360;30.424;2023-11-21T09:16:09;6;3.7;2
74436;PMS7003;62868;52.360;30.424;2023-11-21T09:21:31;5.3;3.7;2.3
74436;PMS7003;62868;52.360;30.424;2023-11-21T09:26:09;5;2.8;1.5
74436;PMS7003;62868;52.360;30.424;2023-11-21T09:31:29;3.7;2.7;1.3
74436;PMS7003;62868;52.360;30.424;2023-11-21T09:36:17;2.3;2;1.3
74436;PMS7003;62868;52.360;30.424;2023-11-21T09:41:51;1.3;1.3;1
74436;PMS7003;62868;52.360;30.424;2023-11-21T09:46:51;2.3;1.8;1.3
74436;PMS7003;62868;52.360;30.424;2023-11-21T09:51:21;2.7;2.3;1.3
74436;PMS7003;62868;52.360;30.424;2023-11-21T09:56:51;6.7;5.3;3
74436;PMS7003;62868;52.360;30.424;2023-11-21T10:01:21;3.3;2.3;1.3
74436;PMS7003;62868;52.360;30.424;2023-11-21T10:06:09;2.3;1.5;1
74436;PMS7003;62868;52.360;30.424;2023-11-21T10:11:33;4;2.7;2
74436;PMS7003;62868;52.360;30.424;2023-11-21T10:16:11;3.7;2;1.7
74436;PMS7003;62868;52.360;30.424;2023-11-21T10:21:33;4.3;2.7;1.7
74436;PMS7003;62868;52.360;30.424;2023-11-21T10:26:33;2.5;2;1.3
74436;PMS7003;62868;52.360;30.424;2023-11-21T10:31:53;1.7;1.3;1
74436;PMS7003;62868;52.360;30.424;2023-11-21T10:36:35;3.7;2.3;1.3
74436;PMS7003;62868;52.360;30.424;2023-11-21T10:41:29;4.7;1.7;1
74436;PMS7003;62868;52.360;30.424;2023-11-21T10:46:49;1.5;1.3;1
74436;PMS7003;62868;52.360;30.424;2023-11-21T10:51:11;2.7;1.3;0.7
74436;PMS7003;62868;52.360;30.424;2023-11-21T10:56:09;2.3;1.7;1
74436;PMS7003;62868;52.360;30.424;2023-11-21T11:01:31;4.8;3.3;2
74436;PMS7003;62868;52.360;30.424;2023-11-21T11:06:29;4.7;3;1.7
74436;PMS7003;62868;52.360;30.424;2023-11-21T11:11:31;5.7;5;2.7
74436;PMS7003;62868;52.360;30.424;2023-11-21T11:16:31;8;6.3;4
74436;PMS7003;62868;52.360;30.424;2023-11-21T11:21:53;7;5.3;3.5
74436;PMS7003;62868;52.360;30.424;2023-11-21T11:26:51;6.3;4.3;3.3
74436;PMS7003;62868;52.360;30.424;2023-11-21T11:31:48;7.7;5.3;3.7
74436;PMS7003;62868;52.360;30.424;2023-11-21T11:36:29;8.3;5;2
74436;PMS7003;62868;52.360;30.424;2023-11-21T11:41:49;6;3.8;2
74436;PMS7003;62868;52.360;30.424;2023-11-21T11:46:09;5.7;4.7;2.7
74436;PMS7003;62868;52.360;30.424;2023-11-21T11:51:58;6.3;5.7;2.7
74436;PMS7003;62868;52.360;30.424;2023-11-21T11:56:22;6.3;4.3;2.7
74436;PMS7003;62868;52.360;30.424;2023-11-21T12:01:37;5;3;1.3
74436;PMS7003;62868;52.360;30.424;2023-11-21T12:06:33;5.3;4.7;2.7
74436;PMS7003;62868;52.360;30.424;2023-11-21T12:11:19;5.3;2.7;1.7
74436;PMS7003;62868;52.360;30.424;2023-11-21T12:16:51;6;4.7;2.7
74436;PMS7003;62868;52.360;30.424;2023-11-21T12:21:11;5.3;5.3;2.5
74436;PMS7003;62868;52.360;30.424;2023-11-21T12:26:12;7.3;5.3;3
74436;PMS7003;62868;52.360;30.424;2023-11-21T12:31:31;6.7;5;3
74436;PMS7003;62868;52.360;30.424;2023-11-21T12:36:29;7;5;4
74436;PMS7003;62868;52.360;30.424;2023-11-21T12:41:51;6;4;3
74436;PMS7003;62868;52.360;30.424;2023-11-21T12:46:21;7.7;4.3;3.3
74436;PMS7003;62868;52.360;30.424;2023-11-21T12:51:19;3.3;2;1.7
74436;PMS7003;62868;52.360;30.424;2023-11-21T12:56:32;4.8;3;1.8
74436;PMS7003;62868;52.360;30.424;2023-11-21T13:01:09;5.7;3.7;2.3
74436;PMS7003;62868;52.360;30.424;2023-11-21T13:06:51;6.3;3.7;3
74436;PMS7003;62868;52.360;30.424;2023-11-21T13:11:33;4.3;3.3;1.7
74436;PMS7003;62868;52.360;30.424;2023-11-21T13:16:11;5.5;4;2
74436;PMS7003;62868;52.360;30.424;2023-11-21T13:21:09;5;3.7;1.3
74436;PMS7003;62868;52.360;30.424;2023-11-21T13:26:29;7.3;5;3
74436;PMS7003;62868;52.360;30.424;2023-11-21T13:31:45;6;4;2
74436;PMS7003;62868;52.360;30.424;2023-11-21T13:36:19;4.3;3;1.5
74436;PMS7003;62868;52.360;30.424;2023-11-21T13:41:17;5;3.3;1.7
74436;PMS7003;62868;52.360;30.424;2023-11-21T13:46:31;3.7;3;1.3
74436;PMS7003;62868;52.360;30.424;2023-11-21T13:51:09;7;3.7;2.3
74436;PMS7003;62868;52.360;30.424;2023-11-21T13:56:51;4.8;2.8;2
74436;PMS7003;62868;52.360;30.424;2023-11-21T14:01:41;3;2.3;1.7
74436;PMS7003;62868;52.360;30.424;2023-11-21T14:06:09;3;2.3;1
74436;PMS7003;62868;52.360;30.424;2023-11-21T14:11:11;2.3;1.3;1
74436;PMS7003;62868;52.360;30.424;2023-11-21T14:16:11;1.8;1.3;1
74436;PMS7003;62868;52.360;30.424;2023-11-21T14:21:51;2.7;2.3;1
74436;PMS7003;62868;52.360;30.424;2023-11-21T14:26:21;8;6;3.7
74436;PMS7003;62868;52.360;30.424;2023-11-21T14:31:19;8.7;6;3.3
74436;PMS7003;62868;52.360;30.424;2023-11-21T14:36:31;13.5;10;5
74436;PMS7003;62868;52.360;30.424;2023-11-21T14:41:09;12.3;8.7;5.3
74436;PMS7003;62868;52.360;30.424;2023-11-21T14:46:49;12.3;7.3;5.3
74436;PMS7003;62868;52.360;30.424;2023-11-21T14:51:41;11.3;9;5.8
74436;PMS7003;62868;52.360;30.424;2023-11-21T14:56:09;7.7;5.7;3.3
74436;PMS7003;62868;52.360;30.424;2023-11-21T15:01:09;3.7;2.7;2
74436;PMS7003;62868;52.360;30.424;2023-11-21T15:06:11;5;4;2.7
74436;PMS7003;62868;52.360;30.424;2023-11-21T15:11:47;4;2.3;1.5
74436;PMS7003;62868;52.360;30.424;2023-11-21T15:16:11;4.3;3;2.7
74436;PMS7003;62868;52.360;30.424;2023-11-21T15:21:19;16.3;11;6.7
74436;PMS7003;62868;52.360;30.424;2023-11-21T15:26:29;22.3;17.3;9
74436;PMS7003;62868;52.360;30.424;2023-11-21T15:31:19;12.8;8.3;4.5
74436;PMS7003;62868;52.360;30.424;2023-11-21T15:36:51;6.3;5.7;3.3
74436;PMS7003;62868;52.360;30.424;2023-11-21T15:41:51;8;5;3.3
74436;PMS7003;62868;52.360;30.424;2023-11-21T15:46:09;4.7;3.3;1.7
74436;PMS7003;62868;52.360;30.424;2023-11-21T15:51:09;4.5;3;1.8
74436;PMS7003;62868;52.360;30.424;2023-11-21T15:56:11;3.3;2;1.7
74436;PMS7003;62868;52.360;30.424;2023-11-21T16:01:53;3;1.3;1
74436;PMS7003;62868;52.360;30.424;2023-11-21T16:06:23;3.3;2;1
74436;PMS7003;62868;52.360;30.424;2023-11-21T16:11:17;3.5;1;0.5
74436;PMS7003;62868;52.360;30.424;2023-11-21T16:16:33;3.7;2;1
74436;PMS7003;62868;52.360;30.424;2023-11-21T16:21:44;4;2.7;1.3
74436;PMS7003;62868;52.360;30.424;2023-11-21T16:26:53;9;6.7;4
74436;PMS7003;62868;52.360;30.424;2023-11-21T16:31:41;10;6.3;3.5
74436;PMS7003;62868;52.360;30.424;2023-11-21T16:36:27;6.7;5.7;2.7
74436;PMS7003;62868;52.360;30.424;2023-11-21T16:41:11;4.3;2.7;2
74436;PMS7003;62868;52.360;30.424;2023-11-21T16:46:09;5.5;4.3;2.5
74436;PMS7003;62868;52.360;30.424;2023-11-21T16:51:49;4.3;3.3;1.3
74436;PMS7003;62868;52.360;30.424;2023-11-21T16:56:39;6.3;3.7;1.7
74436;PMS7003;62868;52.360;30.424;2023-11-21T17:01:17;4.3;2.7;1.7
74436;PMS7003;62868;52.360;30.424;2023-11-21T17:06:31;3;1.8;1.3
74436;PMS7003;62868;52.360;30.424;2023-11-21T17:11:51;5.7;4.3;2.7
74436;PMS7003;62868;52.360;30.424;2023-11-21T17:16:52;3.3;1.7;1
74436;PMS7003;62868;52.360;30.424;2023-11-21T17:21:32;2.7;2;1.3
74436;PMS7003;62868;52.360;30.424;2023-11-21T17:26:11;1.5;0.8;0.5
74436;PMS7003;62868;52.360;30.424;2023-11-21T17:31:11;2.3;1.3;0.3
74436;PMS7003;62868;52.360;30.424;2023-11-21T17:36:11;0.7;0.7;0.3
74436;PMS7003;62868;52.360;30.424;2023-11-21T17:41:51;1.3;1.3;0.3
74436;PMS7003;62868;52.360;30.424;2023-11-21T17:46:09;2.5;0.8;0
74436;PMS7003;62868;52.360;30.424;2023-11-21T17:51:19;1;0;0
74436;PMS7003;62868;52.360;30.424;2023-11-21T17:56:31;0.3;0;0
74436;PMS7003;62868;52.360;30.424;2023-11-21T18:01:41;1.7;0.3;0
74436;PMS7003;62868;52.360;30.424;2023-11-21T18:06:51;1;0.3;0
74436;PMS7003;62868;52.360;30.424;2023-11-21T18:11:51;0.7;0.3;0
74436;PMS7003;62868;52.360;30.424;2023-11-21T18:16:09;0;0;0
74436;PMS7003;62868;52.360;30.424;2023-11-21T18:21:51;0;0;0
74436;PMS7003;62868;52.360;30.424;2023-11-21T18:26:09;0.5;0;0
74436;PMS7003;62868;52.360;30.424;2023-11-21T18:31:51;0.7;0;0
74436;PMS7003;62868;52.360;30.424;2023-11-21T18:36:09;0;0;0
74436;PMS7003;62868;52.360;30.424;2023-11-21T18:41:19;0;0;0
74436;PMS7003;62868;52.360;30.424;2023-11-21T18:46:29;0.7;0.3;0
74436;PMS7003;62868;52.360;30.424;2023-11-21T18:51:44;0;0;0
74436;PMS7003;62868;52.360;30.424;2023-11-21T18:56:51;0.8;0.3;0
74436;PMS7003;62868;52.360;30.424;2023-11-21T19:01:31;0.7;0;0
74436;PMS7003;62868;52.360;30.424;2023-11-21T19:06:09;0.7;0;0
74436;PMS7003;62868;52.360;30.424;2023-11-21T19:11:19;0;0;0
74436;PMS7003;62868;52.360;30.424;2023-11-21T19:16:09;0.7;0.3;0.3
74436;PMS7003;62868;52.360;30.424;2023-11-21T19:21:51;0.3;0;0
74436;PMS7003;62868;52.360;30.424;2023-11-21T19:26:21;0.5;0.5;0.5
74436;PMS7003;62868;52.360;30.424;2023-11-21T19:31:20;0.3;0;0
74436;PMS7003;62868;52.360;30.424;2023-11-21T19:36:19;1.3;0.3;0
74436;PMS7003;62868;52.360;30.424;2023-11-21T19:41:11;0.3;0;0
74436;PMS7003;62868;52.360;30.424;2023-11-21T19:46:49;0.3;0;0
74436;PMS7003;62868;52.360;30.424;2023-11-21T19:51:41;0;0;0
74436;PMS7003;62868;52.360;30.424;2023-11-21T19:56:29;0;0;0
74436;PMS7003;62868;52.360;30.424;2023-11-21T20:01:11;0;0;0
74436;PMS7003;62868;52.360;30.424;2023-11-21T20:06:41;0;0;0
74436;PMS7003;62868;52.360;30.424;2023-11-21T20:11:51;0.3;0;0
74436;PMS7003;62868;52.360;30.424;2023-11-21T20:16:39;0;0;0
74436;PMS7003;62868;52.360;30.424;2023-11-21T20:21:09;0;0;0
74436;PMS7003;62868;52.360;30.424;2023-11-21T20:26:23;0;0;0
74436;PMS7003;62868;52.360;30.424;2023-11-21T20:31:45;0;0;0
74436;PMS7003;62868;52.360;30.424;2023-11-21T20:36:55;0;0;0
74436;PMS7003;62868;52.360;30.424;2023-11-21T20:41:45;0.3;0;0
74436;PMS7003;62868;52.360;30.424;2023-11-21T20:46:11;0;0;0
74436;PMS7003;62868;52.360;30.424;2023-11-21T20:51:09;0;0;0
74436;PMS7003;62868;52.360;30.424;2023-11-21T20:56:23;0;0;0
74436;PMS7003;62868;52.360;30.424;2023-11-21T21:01:55;0;0;0
74436;PMS7003;62868;52.360;30.424;2023-11-21T21:06:45;0;0;0
74436;PMS7003;62868;52.360;30.424;2023-11-21T21:11:19;0;0;0
74436;PMS7003;62868;52.360;30.424;2023-11-21T21:16:31;0;0;0
74436;PMS7003;62868;52.360;30.424;2023-11-21T21:21:43;0;0;0
74436;PMS7003;62868;52.360;30.424;2023-11-21T21:26:53;0;0;0
74436;PMS7003;62868;52.360;30.424;2023-11-21T21:31:53;0.3;0;0
74436;PMS7003;62868;52.360;30.424;2023-11-21T21:36:09;0;0;0
74436;PMS7003;62868;52.360;30.424;2023-11-21T21:41:09;0;0;0
74436;PMS7003;62868;52.360;30.424;2023-11-21T21:46:23;0;0;0
74436;PMS7003;62868;52.360;30.424;2023-11-21T21:51:55;0;0;0
74436;PMS7003;62868;52.360;30.424;2023-11-21T21:56:11;0;0;0
74436;PMS7003;62868;52.360;30.424;2023-11-21T22:01:19;0;0;0
74436;PMS7003;62868;52.360;30.424;2023-11-21T22:06:33;0;0;0
74436;PMS7003;62868;52.360;30.424;2023-11-21T22:11:41;0.3;0;0
74436;PMS7003;62868;52.360;30.424;2023-11-21T22:16:53;0;0;0
74436;PMS7003;62868;52.360;30.424;2023-11-21T22:21:43;0;0;0
74436;PMS7003;62868;52.360;30.424;2023-11-21T22:26:21;0;0;0
74436;PMS7003;62868;52.360;30.424;2023-11-21T22:31:19;0.5;0;0
74436;PMS7003;62868;52.360;30.424;2023-11-21T22:36:21;1.3;0.3;0
74436;PMS7003;62868;52.360;30.424;2023-11-21T22:41:53;0;0;0
74436;PMS7003;62868;52.360;30.424;2023-11-21T22:46:19;0;0;0
74436;PMS7003;62868;52.360;30.424;2023-11-21T22:51:09;0.8;0;0
74436;PMS7003;62868;52.360;30.424;2023-11-21T22:56:21;0.3;0;0
74436;PMS7003;62868;52.360;30.424;2023-11-21T23:01:41;0;0;0
74436;PMS7003;62868;52.360;30.424;2023-11-21T23:06:53;0;0;0
74436;PMS7003;62868;52.360;30.424;2023-11-21T23:11:43;0;0;0
74436;PMS7003;62868;52.360;30.424;2023-11-21T23:16:09;0.3;0;0
74436;PMS7003;62868;52.360;30.424;2023-11-21T23:21:09;0;0;0
74436;PMS7003;62868;52.360;30.424;2023-11-21T23:26:19;0.3;0;0
74436;PMS7003;62868;52.360;30.424;2023-11-21T23:31:53;0;0;0
74436;PMS7003;62868;52.360;30.424;2023-11-21T23:36:11;0;0;0
74436;PMS7003;62868;52.360;30.424;2023-11-21T23:41:17;0;0;0
74436;PMS7003;62868;52.360;30.424;2023-11-21T23:46:31;0;0;0
74436;PMS7003;62868;52.360;30.424;2023-11-21T23:51:43;0;0;0
74436;PMS7003;62868;52.360;30.424;2023-11-21T23:56:53;0;0;0
